Ten. Cel. Aviador César Bombonato Airport
SBUL : now visible

Airfield :











YOU CAN JOIN US ON...

 
LOGIN :

Register | Disclaimer

   EN    FR    IT 

 









Legend :    VFR   Marginal VFR   IFR   Intensive IFR   Very Intensive IFR
Visi :
Ceiling :
>= 8 km
>= 3000ft
5 to 8 km
1000 to 3000 ft
1500m to 5 km
500 to 1000 ft
800 to 1500m
200 to 500 ft
< 800m
< 200 ft
Symbols :   Thunderstorms  Fog  Heavy snow  Heavy precipitations  Wind > 20 kt






- Airport Elevation : 3094 ft
- IATA code : UDI


SBUL - Ten. Cel. Aviador César Bombonato

CURRENT METAR :
  • 201100Z 06005KT CAVOK 23/19 Q1016

EXPIRED METARs :
  • 201000Z 07006KT 9999 FEW030 SCT100 21/19 Q1016
  • 200900Z 07004KT CAVOK 21/19 Q1015

TAF TAF SBUL
Valid from the 20 at 06:00 until the 20 at 18:00 UTC


200200Z 2006/2018 04005KT 9999 SCT025TN20/2009Z TX30/2017Z
BECMG 2013/2015 35008KT
BECMG 2016/2018 BKN030 FEW040TCU RMK PGD



MET'MAP, your aeronautical weather chart ! - Copyright ORBIFLY December 2007 - Disclaimer

ORBIFLY MET'MAP TEAM :

Programming & Development : Alexandra Zaïnal
Concept & original design : Baudouin d'Aumeries
Assistance for programming : Marc-Olivier Méhu
Technical & hardware support : Manuel Goepfert

Contact : metmap@orbifly.com




SOURCES & CREDITS :

   NOAA       Earth
Advisory